sensor_id;sensor_type;location;lat;lon;timestamp;P1;durP1;ratioP1;P2;durP2;ratioP2
14738;SDS011;7461;52.440;13.540;2022-07-04T00:00:51;6.28;;;5.88;;
14738;SDS011;7461;52.440;13.540;2022-07-04T00:03:18;4.85;;;4.55;;
14738;SDS011;7461;52.440;13.540;2022-07-04T00:05:45;5.43;;;4.95;;
14738;SDS011;7461;52.440;13.540;2022-07-04T00:08:13;5.10;;;4.90;;
14738;SDS011;7461;52.440;13.540;2022-07-04T00:10:40;5.05;;;4.85;;
14738;SDS011;7461;52.440;13.540;2022-07-04T00:13:07;4.82;;;4.53;;
14738;SDS011;7461;52.440;13.540;2022-07-04T00:15:34;4.68;;;4.47;;
14738;SDS011;7461;52.440;13.540;2022-07-04T00:18:01;4.47;;;4.18;;
14738;SDS011;7461;52.440;13.540;2022-07-04T00:20:28;3.50;;;3.25;;
14738;SDS011;7461;52.440;13.540;2022-07-04T00:22:55;3.67;;;3.25;;
14738;SDS011;7461;52.440;13.540;2022-07-04T00:25:23;3.47;;;3.20;;
14738;SDS011;7461;52.440;13.540;2022-07-04T00:27:50;3.72;;;3.53;;
14738;SDS011;7461;52.440;13.540;2022-07-04T00:30:17;3.30;;;3.00;;
14738;SDS011;7461;52.440;13.540;2022-07-04T00:32:44;3.45;;;3.28;;
14738;SDS011;7461;52.440;13.540;2022-07-04T00:35:10;3.60;;;3.35;;
14738;SDS011;7461;52.440;13.540;2022-07-04T00:37:37;3.47;;;3.05;;
14738;SDS011;7461;52.440;13.540;2022-07-04T00:40:04;2.97;;;2.88;;
14738;SDS011;7461;52.440;13.540;2022-07-04T00:42:33;3.28;;;3.08;;
14738;SDS011;7461;52.440;13.540;2022-07-04T00:45:00;2.67;;;2.47;;
14738;SDS011;7461;52.440;13.540;2022-07-04T00:47:27;2.85;;;2.33;;
14738;SDS011;7461;52.440;13.540;2022-07-04T00:49:54;3.25;;;2.60;;
14738;SDS011;7461;52.440;13.540;2022-07-04T00:52:21;2.55;;;2.40;;
14738;SDS011;7461;52.440;13.540;2022-07-04T00:54:49;3.00;;;2.50;;
14738;SDS011;7461;52.440;13.540;2022-07-04T00:57:16;3.20;;;3.00;;
14738;SDS011;7461;52.440;13.540;2022-07-04T00:59:44;3.92;;;3.10;;
14738;SDS011;7461;52.440;13.540;2022-07-04T01:02:11;3.17;;;2.97;;
14738;SDS011;7461;52.440;13.540;2022-07-04T01:04:38;5.10;;;4.38;;
14738;SDS011;7461;52.440;13.540;2022-07-04T01:07:05;3.13;;;2.85;;
14738;SDS011;7461;52.440;13.540;2022-07-04T01:09:33;2.85;;;2.72;;
14738;SDS011;7461;52.440;13.540;2022-07-04T01:12:02;2.95;;;2.70;;
14738;SDS011;7461;52.440;13.540;2022-07-04T01:14:29;2.83;;;2.65;;
14738;SDS011;7461;52.440;13.540;2022-07-04T01:16:57;2.75;;;2.65;;
14738;SDS011;7461;52.440;13.540;2022-07-04T01:19:24;4.20;;;2.90;;
14738;SDS011;7461;52.440;13.540;2022-07-04T01:21:52;3.40;;;2.88;;
14738;SDS011;7461;52.440;13.540;2022-07-04T01:24:19;5.93;;;3.00;;
14738;SDS011;7461;52.440;13.540;2022-07-04T01:26:46;2.60;;;2.40;;
14738;SDS011;7461;52.440;13.540;2022-07-04T01:29:13;2.78;;;2.58;;
14738;SDS011;7461;52.440;13.540;2022-07-04T01:31:40;2.88;;;2.67;;
14738;SDS011;7461;52.440;13.540;2022-07-04T01:34:07;3.28;;;3.05;;
14738;SDS011;7461;52.440;13.540;2022-07-04T01:36:33;2.83;;;2.63;;
14738;SDS011;7461;52.440;13.540;2022-07-04T01:39:02;3.10;;;2.90;;
14738;SDS011;7461;52.440;13.540;2022-07-04T01:41:32;4.10;;;3.70;;
14738;SDS011;7461;52.440;13.540;2022-07-04T01:44:00;4.15;;;3.75;;
14738;SDS011;7461;52.440;13.540;2022-07-04T01:46:27;4.53;;;3.05;;
14738;SDS011;7461;52.440;13.540;2022-07-04T01:48:53;2.88;;;2.67;;
14738;SDS011;7461;52.440;13.540;2022-07-04T01:51:20;2.90;;;2.80;;
14738;SDS011;7461;52.440;13.540;2022-07-04T01:53:47;2.28;;;2.17;;
14738;SDS011;7461;52.440;13.540;2022-07-04T01:56:15;3.05;;;2.85;;
14738;SDS011;7461;52.440;13.540;2022-07-04T01:58:42;2.60;;;2.42;;
14738;SDS011;7461;52.440;13.540;2022-07-04T02:01:09;4.68;;;3.25;;
14738;SDS011;7461;52.440;13.540;2022-07-04T02:03:54;3.47;;;2.95;;
14738;SDS011;7461;52.440;13.540;2022-07-04T02:06:21;2.90;;;2.72;;
14738;SDS011;7461;52.440;13.540;2022-07-04T02:08:50;5.28;;;3.75;;
14738;SDS011;7461;52.440;13.540;2022-07-04T02:11:37;3.67;;;3.47;;
14738;SDS011;7461;52.440;13.540;2022-07-04T02:14:22;3.00;;;2.80;;
14738;SDS011;7461;52.440;13.540;2022-07-04T02:16:49;3.42;;;3.22;;
14738;SDS011;7461;52.440;13.540;2022-07-04T02:19:16;3.40;;;3.20;;
14738;SDS011;7461;52.440;13.540;2022-07-04T02:21:43;4.05;;;3.85;;
14738;SDS011;7461;52.440;13.540;2022-07-04T02:24:10;3.85;;;3.65;;
14738;SDS011;7461;52.440;13.540;2022-07-04T02:26:38;3.28;;;3.08;;
14738;SDS011;7461;52.440;13.540;2022-07-04T02:29:05;3.83;;;3.65;;
14738;SDS011;7461;52.440;13.540;2022-07-04T02:31:32;2.95;;;2.85;;
14738;SDS011;7461;52.440;13.540;2022-07-04T02:33:59;3.22;;;3.03;;
14738;SDS011;7461;52.440;13.540;2022-07-04T02:36:26;3.50;;;3.30;;
14738;SDS011;7461;52.440;13.540;2022-07-04T02:38:53;3.42;;;3.22;;
14738;SDS011;7461;52.440;13.540;2022-07-04T02:41:20;4.97;;;4.55;;
14738;SDS011;7461;52.440;13.540;2022-07-04T02:43:48;4.22;;;3.92;;
14738;SDS011;7461;52.440;13.540;2022-07-04T02:46:15;4.00;;;3.80;;
14738;SDS011;7461;52.440;13.540;2022-07-04T02:48:42;3.58;;;3.30;;
14738;SDS011;7461;52.440;13.540;2022-07-04T02:51:08;5.00;;;4.57;;
14738;SDS011;7461;52.440;13.540;2022-07-04T02:53:35;4.50;;;4.28;;
14738;SDS011;7461;52.440;13.540;2022-07-04T02:56:02;5.57;;;4.80;;
14738;SDS011;7461;52.440;13.540;2022-07-04T02:58:30;3.70;;;3.50;;
14738;SDS011;7461;52.440;13.540;2022-07-04T03:00:58;5.10;;;4.80;;
14738;SDS011;7461;52.440;13.540;2022-07-04T03:03:26;5.35;;;5.05;;
14738;SDS011;7461;52.440;13.540;2022-07-04T03:05:53;5.68;;;5.32;;
14738;SDS011;7461;52.440;13.540;2022-07-04T03:08:20;7.53;;;6.82;;
14738;SDS011;7461;52.440;13.540;2022-07-04T03:10:48;6.88;;;6.30;;
14738;SDS011;7461;52.440;13.540;2022-07-04T03:13:16;7.43;;;7.03;;
14738;SDS011;7461;52.440;13.540;2022-07-04T03:15:43;7.18;;;6.57;;
14738;SDS011;7461;52.440;13.540;2022-07-04T03:18:11;6.43;;;6.00;;
14738;SDS011;7461;52.440;13.540;2022-07-04T03:20:39;7.90;;;7.32;;
14738;SDS011;7461;52.440;13.540;2022-07-04T03:23:06;8.80;;;8.27;;
14738;SDS011;7461;52.440;13.540;2022-07-04T03:25:33;8.30;;;7.80;;
14738;SDS011;7461;52.440;13.540;2022-07-04T03:28:00;9.23;;;8.75;;
14738;SDS011;7461;52.440;13.540;2022-07-04T03:30:28;8.15;;;7.55;;
14738;SDS011;7461;52.440;13.540;2022-07-04T03:32:55;7.82;;;7.43;;
14738;SDS011;7461;52.440;13.540;2022-07-04T03:35:23;8.82;;;8.02;;
14738;SDS011;7461;52.440;13.540;2022-07-04T03:37:50;9.63;;;9.00;;
14738;SDS011;7461;52.440;13.540;2022-07-04T03:40:17;9.55;;;9.13;;
14738;SDS011;7461;52.440;13.540;2022-07-04T03:42:44;10.30;;;9.70;;
14738;SDS011;7461;52.440;13.540;2022-07-04T03:45:12;9.13;;;8.55;;
14738;SDS011;7461;52.440;13.540;2022-07-04T03:47:39;9.35;;;8.75;;
14738;SDS011;7461;52.440;13.540;2022-07-04T03:50:06;10.77;;;10.07;;
14738;SDS011;7461;52.440;13.540;2022-07-04T03:52:35;8.45;;;7.97;;
14738;SDS011;7461;52.440;13.540;2022-07-04T03:55:02;9.48;;;8.77;;
14738;SDS011;7461;52.440;13.540;2022-07-04T03:57:29;12.35;;;11.13;;
14738;SDS011;7461;52.440;13.540;2022-07-04T03:59:56;10.07;;;9.35;;
14738;SDS011;7461;52.440;13.540;2022-07-04T04:02:22;11.70;;;10.90;;
14738;SDS011;7461;52.440;13.540;2022-07-04T04:04:49;9.82;;;9.23;;
14738;SDS011;7461;52.440;13.540;2022-07-04T04:07:35;9.75;;;9.07;;
14738;SDS011;7461;52.440;13.540;2022-07-04T04:10:02;9.90;;;9.40;;
14738;SDS011;7461;52.440;13.540;2022-07-04T04:12:30;9.63;;;9.13;;
14738;SDS011;7461;52.440;13.540;2022-07-04T04:14:57;10.32;;;9.48;;
14738;SDS011;7461;52.440;13.540;2022-07-04T04:17:23;8.57;;;8.18;;
14738;SDS011;7461;52.440;13.540;2022-07-04T04:19:50;11.02;;;10.32;;
14738;SDS011;7461;52.440;13.540;2022-07-04T04:22:17;10.10;;;9.20;;
14738;SDS011;7461;52.440;13.540;2022-07-04T04:24:45;9.23;;;8.63;;
14738;SDS011;7461;52.440;13.540;2022-07-04T04:27:12;9.77;;;9.18;;
14738;SDS011;7461;52.440;13.540;2022-07-04T04:29:39;10.65;;;10.05;;
14738;SDS011;7461;52.440;13.540;2022-07-04T04:32:06;11.10;;;10.23;;
14738;SDS011;7461;52.440;13.540;2022-07-04T04:34:33;9.77;;;9.18;;
14738;SDS011;7461;52.440;13.540;2022-07-04T04:37:00;11.30;;;10.57;;
14738;SDS011;7461;52.440;13.540;2022-07-04T04:39:27;11.07;;;10.27;;
14738;SDS011;7461;52.440;13.540;2022-07-04T04:41:56;12.10;;;10.82;;
14738;SDS011;7461;52.440;13.540;2022-07-04T04:44:22;10.88;;;10.18;;
14738;SDS011;7461;52.440;13.540;2022-07-04T04:46:55;11.25;;;10.45;;
14738;SDS011;7461;52.440;13.540;2022-07-04T04:49:22;10.70;;;9.77;;
14738;SDS011;7461;52.440;13.540;2022-07-04T04:51:49;10.18;;;9.48;;
14738;SDS011;7461;52.440;13.540;2022-07-04T04:54:16;9.68;;;9.07;;
14738;SDS011;7461;52.440;13.540;2022-07-04T04:56:43;11.40;;;10.70;;
14738;SDS011;7461;52.440;13.540;2022-07-04T04:59:11;11.65;;;10.95;;
14738;SDS011;7461;52.440;13.540;2022-07-04T05:01:38;10.55;;;9.95;;
14738;SDS011;7461;52.440;13.540;2022-07-04T05:04:05;11.05;;;10.25;;
14738;SDS011;7461;52.440;13.540;2022-07-04T05:06:32;9.43;;;8.82;;
14738;SDS011;7461;52.440;13.540;2022-07-04T05:08:59;10.82;;;10.23;;
14738;SDS011;7461;52.440;13.540;2022-07-04T05:11:26;10.98;;;10.10;;
14738;SDS011;7461;52.440;13.540;2022-07-04T05:13:52;10.88;;;10.07;;
14738;SDS011;7461;52.440;13.540;2022-07-04T05:16:21;11.77;;;10.77;;
14738;SDS011;7461;52.440;13.540;2022-07-04T05:18:48;9.90;;;9.30;;
14738;SDS011;7461;52.440;13.540;2022-07-04T05:21:14;11.20;;;10.40;;
14738;SDS011;7461;52.440;13.540;2022-07-04T05:23:41;11.05;;;10.15;;
14738;SDS011;7461;52.440;13.540;2022-07-04T05:26:08;10.98;;;10.23;;
14738;SDS011;7461;52.440;13.540;2022-07-04T05:28:35;10.10;;;9.50;;
14738;SDS011;7461;52.440;13.540;2022-07-04T05:31:02;10.85;;;10.15;;
14738;SDS011;7461;52.440;13.540;2022-07-04T05:33:30;11.95;;;10.90;;
14738;SDS011;7461;52.440;13.540;2022-07-04T05:35:57;10.40;;;9.82;;
14738;SDS011;7461;52.440;13.540;2022-07-04T05:38:24;10.15;;;9.45;;
14738;SDS011;7461;52.440;13.540;2022-07-04T05:40:51;11.07;;;10.20;;
14738;SDS011;7461;52.440;13.540;2022-07-04T05:43:18;10.60;;;9.80;;
14738;SDS011;7461;52.440;13.540;2022-07-04T05:45:46;10.18;;;9.43;;
14738;SDS011;7461;52.440;13.540;2022-07-04T05:48:14;9.95;;;9.40;;
14738;SDS011;7461;52.440;13.540;2022-07-04T05:50:42;9.63;;;9.02;;
14738;SDS011;7461;52.440;13.540;2022-07-04T05:53:09;8.40;;;7.75;;
14738;SDS011;7461;52.440;13.540;2022-07-04T05:55:36;9.07;;;8.38;;
14738;SDS011;7461;52.440;13.540;2022-07-04T05:58:03;8.48;;;7.82;;
14738;SDS011;7461;52.440;13.540;2022-07-04T06:00:30;7.50;;;7.00;;
14738;SDS011;7461;52.440;13.540;2022-07-04T06:02:57;8.65;;;7.97;;
14738;SDS011;7461;52.440;13.540;2022-07-04T06:05:24;7.90;;;7.18;;
14738;SDS011;7461;52.440;13.540;2022-07-04T06:07:52;8.27;;;7.57;;
14738;SDS011;7461;52.440;13.540;2022-07-04T06:10:19;7.00;;;6.40;;
14738;SDS011;7461;52.440;13.540;2022-07-04T06:12:46;6.10;;;5.60;;
14738;SDS011;7461;52.440;13.540;2022-07-04T06:15:13;5.47;;;5.05;;
14738;SDS011;7461;52.440;13.540;2022-07-04T06:17:40;4.80;;;4.40;;
14738;SDS011;7461;52.440;13.540;2022-07-04T06:20:07;6.07;;;4.97;;
14738;SDS011;7461;52.440;13.540;2022-07-04T06:22:38;4.05;;;3.75;;
14738;SDS011;7461;52.440;13.540;2022-07-04T06:25:09;5.18;;;4.80;;
14738;SDS011;7461;52.440;13.540;2022-07-04T06:27:37;5.82;;;3.50;;
14738;SDS011;7461;52.440;13.540;2022-07-04T06:30:04;3.92;;;3.72;;
14738;SDS011;7461;52.440;13.540;2022-07-04T06:32:40;4.07;;;3.88;;
14738;SDS011;7461;52.440;13.540;2022-07-04T06:35:08;4.03;;;3.80;;
14738;SDS011;7461;52.440;13.540;2022-07-04T06:37:52;4.18;;;3.88;;
14738;SDS011;7461;52.440;13.540;2022-07-04T06:40:20;5.38;;;3.45;;
14738;SDS011;7461;52.440;13.540;2022-07-04T06:42:47;3.58;;;3.38;;
14738;SDS011;7461;52.440;13.540;2022-07-04T06:45:14;4.03;;;3.63;;
14738;SDS011;7461;52.440;13.540;2022-07-04T06:47:41;4.10;;;3.78;;
14738;SDS011;7461;52.440;13.540;2022-07-04T06:50:08;3.35;;;2.88;;
14738;SDS011;7461;52.440;13.540;2022-07-04T06:52:35;2.50;;;2.40;;
14738;SDS011;7461;52.440;13.540;2022-07-04T06:55:02;3.10;;;2.90;;
14738;SDS011;7461;52.440;13.540;2022-07-04T06:57:31;5.03;;;3.08;;
14738;SDS011;7461;52.440;13.540;2022-07-04T06:59:58;2.83;;;2.63;;
14738;SDS011;7461;52.440;13.540;2022-07-04T07:02:26;3.05;;;2.85;;
14738;SDS011;7461;52.440;13.540;2022-07-04T07:04:54;2.55;;;2.45;;
14738;SDS011;7461;52.440;13.540;2022-07-04T07:07:21;2.53;;;1.67;;
14738;SDS011;7461;52.440;13.540;2022-07-04T07:09:49;2.50;;;2.30;;
14738;SDS011;7461;52.440;13.540;2022-07-04T07:12:16;3.08;;;2.25;;
14738;SDS011;7461;52.440;13.540;2022-07-04T07:14:45;2.30;;;2.10;;
14738;SDS011;7461;52.440;13.540;2022-07-04T07:17:11;2.60;;;1.88;;
14738;SDS011;7461;52.440;13.540;2022-07-04T07:19:40;3.22;;;2.08;;
14738;SDS011;7461;52.440;13.540;2022-07-04T07:22:07;4.50;;;1.90;;
14738;SDS011;7461;52.440;13.540;2022-07-04T07:24:34;2.28;;;2.00;;
14738;SDS011;7461;52.440;13.540;2022-07-04T07:27:01;2.35;;;2.20;;
14738;SDS011;7461;52.440;13.540;2022-07-04T07:29:29;3.60;;;2.00;;
14738;SDS011;7461;52.440;13.540;2022-07-04T07:31:57;1.88;;;1.83;;
14738;SDS011;7461;52.440;13.540;2022-07-04T07:34:24;1.98;;;1.88;;
14738;SDS011;7461;52.440;13.540;2022-07-04T07:36:51;4.35;;;1.90;;
14738;SDS011;7461;52.440;13.540;2022-07-04T07:39:18;2.20;;;2.03;;
14738;SDS011;7461;52.440;13.540;2022-07-04T07:41:44;1.77;;;1.58;;
14738;SDS011;7461;52.440;13.540;2022-07-04T07:44:11;2.05;;;1.73;;
14738;SDS011;7461;52.440;13.540;2022-07-04T07:46:38;6.63;;;1.85;;
14738;SDS011;7461;52.440;13.540;2022-07-04T07:49:07;2.40;;;2.08;;
14738;SDS011;7461;52.440;13.540;2022-07-04T07:51:34;2.08;;;1.90;;
14738;SDS011;7461;52.440;13.540;2022-07-04T07:54:01;1.98;;;1.77;;
14738;SDS011;7461;52.440;13.540;2022-07-04T07:56:28;2.35;;;1.50;;
14738;SDS011;7461;52.440;13.540;2022-07-04T07:58:55;2.83;;;1.63;;
14738;SDS011;7461;52.440;13.540;2022-07-04T08:01:22;1.30;;;1.20;;
14738;SDS011;7461;52.440;13.540;2022-07-04T08:03:49;2.08;;;1.67;;
14738;SDS011;7461;52.440;13.540;2022-07-04T08:06:35;2.22;;;1.95;;
14738;SDS011;7461;52.440;13.540;2022-07-04T08:09:02;3.83;;;1.67;;
14738;SDS011;7461;52.440;13.540;2022-07-04T08:11:29;4.43;;;1.67;;
14738;SDS011;7461;52.440;13.540;2022-07-04T08:13:56;1.33;;;1.20;;
14738;SDS011;7461;52.440;13.540;2022-07-04T08:16:23;1.65;;;1.42;;
14738;SDS011;7461;52.440;13.540;2022-07-04T08:18:50;1.98;;;1.52;;
14738;SDS011;7461;52.440;13.540;2022-07-04T08:21:16;1.30;;;1.02;;
14738;SDS011;7461;52.440;13.540;2022-07-04T08:23:45;2.50;;;1.58;;
14738;SDS011;7461;52.440;13.540;2022-07-04T08:26:12;3.05;;;1.58;;
14738;SDS011;7461;52.440;13.540;2022-07-04T08:28:39;4.03;;;1.33;;
14738;SDS011;7461;52.440;13.540;2022-07-04T08:31:05;3.50;;;1.70;;
14738;SDS011;7461;52.440;13.540;2022-07-04T08:33:32;1.83;;;1.35;;
14738;SDS011;7461;52.440;13.540;2022-07-04T08:35:59;6.50;;;1.88;;
14738;SDS011;7461;52.440;13.540;2022-07-04T08:38:26;2.05;;;1.58;;
14738;SDS011;7461;52.440;13.540;2022-07-04T08:40:55;2.20;;;1.83;;
14738;SDS011;7461;52.440;13.540;2022-07-04T08:43:24;0.90;;;0.90;;
14738;SDS011;7461;52.440;13.540;2022-07-04T08:45:52;3.33;;;1.42;;
14738;SDS011;7461;52.440;13.540;2022-07-04T08:48:23;2.53;;;1.83;;
14738;SDS011;7461;52.440;13.540;2022-07-04T08:50:53;3.38;;;1.27;;
14738;SDS011;7461;52.440;13.540;2022-07-04T08:53:24;3.85;;;3.33;;
14738;SDS011;7461;52.440;13.540;2022-07-04T08:55:56;4.22;;;2.17;;
14738;SDS011;7461;52.440;13.540;2022-07-04T08:58:43;2.55;;;1.58;;
14738;SDS011;7461;52.440;13.540;2022-07-04T09:01:11;1.90;;;1.55;;
14738;SDS011;7461;52.440;13.540;2022-07-04T09:03:41;1.50;;;1.38;;
14738;SDS011;7461;52.440;13.540;2022-07-04T09:06:09;2.10;;;1.65;;
14738;SDS011;7461;52.440;13.540;2022-07-04T09:08:36;1.85;;;1.42;;
14738;SDS011;7461;52.440;13.540;2022-07-04T09:11:05;2.38;;;1.63;;
14738;SDS011;7461;52.440;13.540;2022-07-04T09:13:32;2.38;;;1.70;;
14738;SDS011;7461;52.440;13.540;2022-07-04T09:16:00;1.02;;;0.88;;
14738;SDS011;7461;52.440;13.540;2022-07-04T09:18:28;0.98;;;0.98;;
14738;SDS011;7461;52.440;13.540;2022-07-04T09:20:58;5.38;;;1.15;;
14738;SDS011;7461;52.440;13.540;2022-07-04T09:23:26;2.97;;;1.75;;
14738;SDS011;7461;52.440;13.540;2022-07-04T09:28:44;2.10;;;1.90;;
14738;SDS011;7461;52.440;13.540;2022-07-04T09:31:18;2.45;;;0.95;;
14738;SDS011;7461;52.440;13.540;2022-07-04T09:33:48;2.88;;;0.90;;
14738;SDS011;7461;52.440;13.540;2022-07-04T09:36:20;2.60;;;2.33;;
14738;SDS011;7461;52.440;13.540;2022-07-04T09:39:03;2.50;;;1.15;;
14738;SDS011;7461;52.440;13.540;2022-07-04T09:41:55;1.25;;;0.93;;
14738;SDS011;7461;52.440;13.540;2022-07-04T09:44:23;1.50;;;0.70;;
14738;SDS011;7461;52.440;13.540;2022-07-04T09:46:52;3.92;;;1.60;;
14738;SDS011;7461;52.440;13.540;2022-07-04T09:49:19;2.85;;;1.83;;
14738;SDS011;7461;52.440;13.540;2022-07-04T09:51:46;2.15;;;1.58;;
14738;SDS011;7461;52.440;13.540;2022-07-04T09:54:15;1.33;;;1.02;;
14738;SDS011;7461;52.440;13.540;2022-07-04T09:56:44;2.70;;;1.10;;
14738;SDS011;7461;52.440;13.540;2022-07-04T09:59:14;5.20;;;1.00;;
14738;SDS011;7461;52.440;13.540;2022-07-04T10:01:41;1.85;;;1.00;;
14738;SDS011;7461;52.440;13.540;2022-07-04T10:04:08;2.80;;;1.40;;
14738;SDS011;7461;52.440;13.540;2022-07-04T10:06:37;1.48;;;1.10;;
14738;SDS011;7461;52.440;13.540;2022-07-04T10:09:06;1.98;;;1.10;;
14738;SDS011;7461;52.440;13.540;2022-07-04T10:11:35;2.65;;;1.25;;
14738;SDS011;7461;52.440;13.540;2022-07-04T10:14:03;1.38;;;1.27;;
14738;SDS011;7461;52.440;13.540;2022-07-04T10:16:33;1.42;;;0.77;;
14738;SDS011;7461;52.440;13.540;2022-07-04T10:19:01;2.88;;;1.17;;
14738;SDS011;7461;52.440;13.540;2022-07-04T10:21:28;1.50;;;1.35;;
14738;SDS011;7461;52.440;13.540;2022-07-04T10:23:56;7.00;;;1.63;;
14738;SDS011;7461;52.440;13.540;2022-07-04T10:26:23;0.73;;;0.68;;
14738;SDS011;7461;52.440;13.540;2022-07-04T10:28:51;3.08;;;1.42;;
14738;SDS011;7461;52.440;13.540;2022-07-04T10:31:18;4.80;;;1.05;;
14738;SDS011;7461;52.440;13.540;2022-07-04T10:33:47;1.95;;;1.50;;
14738;SDS011;7461;52.440;13.540;2022-07-04T10:36:17;1.45;;;1.35;;
14738;SDS011;7461;52.440;13.540;2022-07-04T10:38:48;1.92;;;0.90;;
14738;SDS011;7461;52.440;13.540;2022-07-04T10:41:16;4.78;;;2.35;;
14738;SDS011;7461;52.440;13.540;2022-07-04T10:43:55;6.35;;;2.20;;
14738;SDS011;7461;52.440;13.540;2022-07-04T10:46:29;2.38;;;1.27;;
14738;SDS011;7461;52.440;13.540;2022-07-04T10:48:59;1.83;;;1.25;;
14738;SDS011;7461;52.440;13.540;2022-07-04T10:51:41;3.63;;;1.55;;
14738;SDS011;7461;52.440;13.540;2022-07-04T10:54:11;3.13;;;1.20;;
14738;SDS011;7461;52.440;13.540;2022-07-04T10:56:40;3.90;;;1.35;;
14738;SDS011;7461;52.440;13.540;2022-07-04T10:59:10;12.20;;;1.95;;
14738;SDS011;7461;52.440;13.540;2022-07-04T11:01:38;5.63;;;1.52;;
14738;SDS011;7461;52.440;13.540;2022-07-04T11:04:11;1.83;;;1.17;;
14738;SDS011;7461;52.440;13.540;2022-07-04T11:06:51;1.38;;;1.00;;
14738;SDS011;7461;52.440;13.540;2022-07-04T11:09:20;1.60;;;1.27;;
14738;SDS011;7461;52.440;13.540;2022-07-04T11:11:50;3.03;;;1.17;;
14738;SDS011;7461;52.440;13.540;2022-07-04T11:17:04;4.75;;;1.58;;
14738;SDS011;7461;52.440;13.540;2022-07-04T11:19:33;2.28;;;1.48;;
14738;SDS011;7461;52.440;13.540;2022-07-04T11:22:00;6.32;;;1.55;;
14738;SDS011;7461;52.440;13.540;2022-07-04T11:24:27;3.05;;;1.52;;
14738;SDS011;7461;52.440;13.540;2022-07-04T11:26:54;1.83;;;1.10;;
14738;SDS011;7461;52.440;13.540;2022-07-04T11:29:21;2.08;;;1.83;;
14738;SDS011;7461;52.440;13.540;2022-07-04T11:31:49;2.55;;;1.73;;
14738;SDS011;7461;52.440;13.540;2022-07-04T11:34:17;7.47;;;2.10;;
14738;SDS011;7461;52.440;13.540;2022-07-04T11:36:46;1.70;;;1.60;;
14738;SDS011;7461;52.440;13.540;2022-07-04T11:39:15;1.98;;;1.50;;
14738;SDS011;7461;52.440;13.540;2022-07-04T11:41:45;1.40;;;1.30;;
14738;SDS011;7461;52.440;13.540;2022-07-04T11:44:32;3.05;;;1.23;;
14738;SDS011;7461;52.440;13.540;2022-07-04T11:47:18;1.23;;;1.13;;
14738;SDS011;7461;52.440;13.540;2022-07-04T11:49:46;1.17;;;1.05;;
14738;SDS011;7461;52.440;13.540;2022-07-04T11:52:17;1.52;;;1.13;;
14738;SDS011;7461;52.440;13.540;2022-07-04T11:54:46;1.40;;;1.20;;
14738;SDS011;7461;52.440;13.540;2022-07-04T11:57:15;1.30;;;1.20;;
14738;SDS011;7461;52.440;13.540;2022-07-04T11:59:51;2.80;;;1.55;;
14738;SDS011;7461;52.440;13.540;2022-07-04T12:02:22;3.30;;;1.20;;
14738;SDS011;7461;52.440;13.540;2022-07-04T12:04:50;1.45;;;1.35;;
14738;SDS011;7461;52.440;13.540;2022-07-04T12:07:19;2.10;;;1.90;;
14738;SDS011;7461;52.440;13.540;2022-07-04T12:09:48;2.97;;;1.50;;
14738;SDS011;7461;52.440;13.540;2022-07-04T12:12:15;1.90;;;1.52;;
14738;SDS011;7461;52.440;13.540;2022-07-04T12:14:58;3.35;;;1.58;;
14738;SDS011;7461;52.440;13.540;2022-07-04T12:17:31;2.90;;;1.40;;
14738;SDS011;7461;52.440;13.540;2022-07-04T12:19:59;1.83;;;0.90;;
14738;SDS011;7461;52.440;13.540;2022-07-04T12:22:30;1.70;;;1.55;;
14738;SDS011;7461;52.440;13.540;2022-07-04T12:24:58;6.93;;;2.50;;
14738;SDS011;7461;52.440;13.540;2022-07-04T12:27:26;3.78;;;3.33;;
14738;SDS011;7461;52.440;13.540;2022-07-04T12:29:54;0.90;;;0.90;;
14738;SDS011;7461;52.440;13.540;2022-07-04T12:32:22;3.28;;;1.60;;
14738;SDS011;7461;52.440;13.540;2022-07-04T12:34:49;1.40;;;1.30;;
14738;SDS011;7461;52.440;13.540;2022-07-04T12:37:16;4.50;;;1.33;;
14738;SDS011;7461;52.440;13.540;2022-07-04T12:39:44;1.58;;;1.20;;
14738;SDS011;7461;52.440;13.540;2022-07-04T12:42:12;1.67;;;1.50;;
14738;SDS011;7461;52.440;13.540;2022-07-04T12:44:42;1.45;;;1.25;;
14738;SDS011;7461;52.440;13.540;2022-07-04T12:47:10;1.88;;;1.10;;
14738;SDS011;7461;52.440;13.540;2022-07-04T12:49:41;1.20;;;1.08;;
14738;SDS011;7461;52.440;13.540;2022-07-04T12:52:11;2.38;;;0.90;;
14738;SDS011;7461;52.440;13.540;2022-07-04T12:54:39;3.85;;;1.83;;
14738;SDS011;7461;52.440;13.540;2022-07-04T12:57:09;1.50;;;1.30;;
14738;SDS011;7461;52.440;13.540;2022-07-04T12:59:37;1.48;;;0.98;;
14738;SDS011;7461;52.440;13.540;2022-07-04T13:02:05;2.97;;;1.77;;
14738;SDS011;7461;52.440;13.540;2022-07-04T13:04:32;5.43;;;1.40;;
14738;SDS011;7461;52.440;13.540;2022-07-04T13:07:00;2.13;;;0.90;;
14738;SDS011;7461;52.440;13.540;2022-07-04T13:09:38;1.75;;;1.45;;
14738;SDS011;7461;52.440;13.540;2022-07-04T13:12:05;1.45;;;0.90;;
14738;SDS011;7461;52.440;13.540;2022-07-04T13:14:54;1.15;;;1.00;;
14738;SDS011;7461;52.440;13.540;2022-07-04T13:17:23;1.15;;;1.05;;
14738;SDS011;7461;52.440;13.540;2022-07-04T13:19:51;4.72;;;1.00;;
14738;SDS011;7461;52.440;13.540;2022-07-04T13:22:19;1.65;;;1.10;;
14738;SDS011;7461;52.440;13.540;2022-07-04T13:24:46;3.53;;;1.50;;
14738;SDS011;7461;52.440;13.540;2022-07-04T13:27:14;2.10;;;1.75;;
14738;SDS011;7461;52.440;13.540;2022-07-04T13:29:41;0.98;;;0.85;;
14738;SDS011;7461;52.440;13.540;2022-07-04T13:32:09;1.25;;;1.13;;
14738;SDS011;7461;52.440;13.540;2022-07-04T13:34:36;2.40;;;1.13;;
14738;SDS011;7461;52.440;13.540;2022-07-04T13:37:03;1.10;;;0.98;;
14738;SDS011;7461;52.440;13.540;2022-07-04T13:39:30;1.00;;;0.98;;
14738;SDS011;7461;52.440;13.540;2022-07-04T13:41:57;0.80;;;0.80;;
14738;SDS011;7461;52.440;13.540;2022-07-04T13:44:24;0.90;;;0.90;;
14738;SDS011;7461;52.440;13.540;2022-07-04T13:46:51;2.38;;;1.45;;
14738;SDS011;7461;52.440;13.540;2022-07-04T13:49:20;3.90;;;1.38;;
14738;SDS011;7461;52.440;13.540;2022-07-04T13:51:46;2.00;;;1.02;;
14738;SDS011;7461;52.440;13.540;2022-07-04T13:54:13;4.22;;;1.48;;
14738;SDS011;7461;52.440;13.540;2022-07-04T13:56:40;3.50;;;1.23;;
14738;SDS011;7461;52.440;13.540;2022-07-04T13:59:08;2.67;;;1.40;;
14738;SDS011;7461;52.440;13.540;2022-07-04T14:01:35;1.33;;;1.00;;
14738;SDS011;7461;52.440;13.540;2022-07-04T14:04:02;1.23;;;0.90;;
14738;SDS011;7461;52.440;13.540;2022-07-04T14:06:30;1.13;;;0.77;;
14738;SDS011;7461;52.440;13.540;2022-07-04T14:08:58;1.30;;;1.15;;
14738;SDS011;7461;52.440;13.540;2022-07-04T14:11:25;2.15;;;1.10;;
14738;SDS011;7461;52.440;13.540;2022-07-04T14:13:52;2.53;;;1.25;;
14738;SDS011;7461;52.440;13.540;2022-07-04T14:16:19;1.55;;;1.40;;
14738;SDS011;7461;52.440;13.540;2022-07-04T14:18:46;1.25;;;1.17;;
14738;SDS011;7461;52.440;13.540;2022-07-04T14:21:12;1.30;;;1.20;;
14738;SDS011;7461;52.440;13.540;2022-07-04T14:23:40;1.55;;;1.00;;
14738;SDS011;7461;52.440;13.540;2022-07-04T14:26:11;0.98;;;0.93;;
14738;SDS011;7461;52.440;13.540;2022-07-04T14:28:40;1.58;;;0.60;;
14738;SDS011;7461;52.440;13.540;2022-07-04T14:31:09;2.63;;;0.80;;
14738;SDS011;7461;52.440;13.540;2022-07-04T14:33:36;1.00;;;1.00;;
14738;SDS011;7461;52.440;13.540;2022-07-04T14:36:03;2.38;;;1.17;;
14738;SDS011;7461;52.440;13.540;2022-07-04T14:38:32;2.00;;;1.10;;
14738;SDS011;7461;52.440;13.540;2022-07-04T14:41:01;0.95;;;0.90;;
14738;SDS011;7461;52.440;13.540;2022-07-04T14:43:36;2.08;;;1.17;;
14738;SDS011;7461;52.440;13.540;2022-07-04T14:46:04;1.92;;;0.80;;
14738;SDS011;7461;52.440;13.540;2022-07-04T14:48:31;1.13;;;1.10;;
14738;SDS011;7461;52.440;13.540;2022-07-04T14:50:58;1.55;;;0.82;;
14738;SDS011;7461;52.440;13.540;2022-07-04T14:53:25;0.90;;;0.90;;
14738;SDS011;7461;52.440;13.540;2022-07-04T14:55:52;0.82;;;0.70;;
14738;SDS011;7461;52.440;13.540;2022-07-04T14:58:20;1.38;;;1.27;;